sensor_id;sensor_type;location;lat;lon;timestamp;P1;durP1;ratioP1;P2;durP2;ratioP2
31128;SDS011;17777;48.770;8.944;2023-05-07T00:00:11;1.25;;;1.15;;
31128;SDS011;17777;48.770;8.944;2023-05-07T00:02:40;2.47;;;1.25;;
31128;SDS011;17777;48.770;8.944;2023-05-07T00:05:06;1.80;;;1.17;;
31128;SDS011;17777;48.770;8.944;2023-05-07T00:07:32;1.42;;;0.90;;
31128;SDS011;17777;48.770;8.944;2023-05-07T00:09:58;2.15;;;1.10;;
31128;SDS011;17777;48.770;8.944;2023-05-07T00:12:24;1.25;;;0.90;;
31128;SDS011;17777;48.770;8.944;2023-05-07T00:14:50;3.50;;;1.05;;
31128;SDS011;17777;48.770;8.944;2023-05-07T00:17:16;1.27;;;0.93;;
31128;SDS011;17777;48.770;8.944;2023-05-07T00:19:41;1.13;;;1.02;;
31128;SDS011;17777;48.770;8.944;2023-05-07T00:22:07;1.35;;;1.00;;
31128;SDS011;17777;48.770;8.944;2023-05-07T00:24:33;1.10;;;1.00;;
31128;SDS011;17777;48.770;8.944;2023-05-07T00:26:59;2.08;;;1.05;;
31128;SDS011;17777;48.770;8.944;2023-05-07T00:29:25;1.05;;;0.90;;
31128;SDS011;17777;48.770;8.944;2023-05-07T00:31:51;1.45;;;0.90;;
31128;SDS011;17777;48.770;8.944;2023-05-07T00:34:18;1.48;;;0.90;;
31128;SDS011;17777;48.770;8.944;2023-05-07T00:36:44;1.80;;;0.90;;
31128;SDS011;17777;48.770;8.944;2023-05-07T00:39:10;1.50;;;0.85;;
31128;SDS011;17777;48.770;8.944;2023-05-07T00:41:37;0.95;;;0.70;;
31128;SDS011;17777;48.770;8.944;2023-05-07T00:44:03;1.95;;;0.88;;
31128;SDS011;17777;48.770;8.944;2023-05-07T00:46:29;1.40;;;1.17;;
31128;SDS011;17777;48.770;8.944;2023-05-07T00:48:56;1.10;;;1.00;;
31128;SDS011;17777;48.770;8.944;2023-05-07T00:51:23;1.17;;;1.08;;
31128;SDS011;17777;48.770;8.944;2023-05-07T00:53:52;1.63;;;1.10;;
31128;SDS011;17777;48.770;8.944;2023-05-07T00:56:19;1.90;;;0.90;;
31128;SDS011;17777;48.770;8.944;2023-05-07T00:58:48;0.90;;;0.88;;
31128;SDS011;17777;48.770;8.944;2023-05-07T01:01:14;1.13;;;1.02;;
31128;SDS011;17777;48.770;8.944;2023-05-07T01:03:41;1.23;;;1.05;;
31128;SDS011;17777;48.770;8.944;2023-05-07T01:06:08;2.53;;;1.20;;
31128;SDS011;17777;48.770;8.944;2023-05-07T01:08:36;1.60;;;1.13;;
31128;SDS011;17777;48.770;8.944;2023-05-07T01:11:04;2.95;;;0.98;;
31128;SDS011;17777;48.770;8.944;2023-05-07T01:13:31;2.00;;;1.08;;
31128;SDS011;17777;48.770;8.944;2023-05-07T01:16:00;1.13;;;1.02;;
31128;SDS011;17777;48.770;8.944;2023-05-07T01:18:27;1.10;;;0.90;;
31128;SDS011;17777;48.770;8.944;2023-05-07T01:20:55;1.35;;;0.90;;
31128;SDS011;17777;48.770;8.944;2023-05-07T01:23:25;1.00;;;0.93;;
31128;SDS011;17777;48.770;8.944;2023-05-07T01:25:53;1.48;;;0.95;;
31128;SDS011;17777;48.770;8.944;2023-05-07T01:28:22;1.00;;;0.93;;
31128;SDS011;17777;48.770;8.944;2023-05-07T01:30:52;1.10;;;1.00;;
31128;SDS011;17777;48.770;8.944;2023-05-07T01:33:23;1.10;;;0.95;;
31128;SDS011;17777;48.770;8.944;2023-05-07T01:35:52;1.27;;;1.17;;
31128;SDS011;17777;48.770;8.944;2023-05-07T01:38:19;1.17;;;1.00;;
31128;SDS011;17777;48.770;8.944;2023-05-07T01:40:47;1.45;;;1.13;;
31128;SDS011;17777;48.770;8.944;2023-05-07T01:43:13;1.73;;;0.85;;
31128;SDS011;17777;48.770;8.944;2023-05-07T01:45:39;1.80;;;1.20;;
31128;SDS011;17777;48.770;8.944;2023-05-07T01:48:07;1.10;;;1.00;;
31128;SDS011;17777;48.770;8.944;2023-05-07T01:50:34;1.10;;;1.00;;
31128;SDS011;17777;48.770;8.944;2023-05-07T01:53:01;1.50;;;0.80;;
31128;SDS011;17777;48.770;8.944;2023-05-07T01:55:27;2.63;;;0.82;;
31128;SDS011;17777;48.770;8.944;2023-05-07T01:57:53;1.30;;;0.90;;
31128;SDS011;17777;48.770;8.944;2023-05-07T02:00:19;1.77;;;0.82;;
31128;SDS011;17777;48.770;8.944;2023-05-07T02:02:45;0.95;;;0.90;;
31128;SDS011;17777;48.770;8.944;2023-05-07T02:05:24;2.10;;;1.00;;
31128;SDS011;17777;48.770;8.944;2023-05-07T02:08:07;1.50;;;1.17;;
31128;SDS011;17777;48.770;8.944;2023-05-07T02:10:33;1.80;;;1.40;;
31128;SDS011;17777;48.770;8.944;2023-05-07T02:13:01;2.10;;;1.17;;
31128;SDS011;17777;48.770;8.944;2023-05-07T02:15:27;2.85;;;1.10;;
31128;SDS011;17777;48.770;8.944;2023-05-07T02:18:01;2.83;;;1.27;;
31128;SDS011;17777;48.770;8.944;2023-05-07T02:20:30;2.05;;;1.10;;
31128;SDS011;17777;48.770;8.944;2023-05-07T02:22:56;1.52;;;1.10;;
31128;SDS011;17777;48.770;8.944;2023-05-07T02:25:22;1.35;;;1.00;;
31128;SDS011;17777;48.770;8.944;2023-05-07T02:27:48;1.52;;;1.33;;
31128;SDS011;17777;48.770;8.944;2023-05-07T02:30:15;2.85;;;1.48;;
31128;SDS011;17777;48.770;8.944;2023-05-07T02:32:41;1.23;;;1.13;;
31128;SDS011;17777;48.770;8.944;2023-05-07T02:35:07;1.52;;;1.30;;
31128;SDS011;17777;48.770;8.944;2023-05-07T02:37:33;1.75;;;1.35;;
31128;SDS011;17777;48.770;8.944;2023-05-07T02:39:59;1.98;;;1.40;;
31128;SDS011;17777;48.770;8.944;2023-05-07T02:42:25;1.30;;;1.00;;
31128;SDS011;17777;48.770;8.944;2023-05-07T02:44:52;1.48;;;1.23;;
31128;SDS011;17777;48.770;8.944;2023-05-07T02:47:18;2.05;;;1.42;;
31128;SDS011;17777;48.770;8.944;2023-05-07T02:49:44;1.77;;;1.40;;
31128;SDS011;17777;48.770;8.944;2023-05-07T02:52:10;1.48;;;1.38;;
31128;SDS011;17777;48.770;8.944;2023-05-07T02:54:36;1.55;;;1.10;;
31128;SDS011;17777;48.770;8.944;2023-05-07T02:57:02;1.60;;;1.25;;
31128;SDS011;17777;48.770;8.944;2023-05-07T02:59:28;2.00;;;1.30;;
31128;SDS011;17777;48.770;8.944;2023-05-07T03:01:55;1.50;;;1.17;;
31128;SDS011;17777;48.770;8.944;2023-05-07T03:04:21;1.42;;;1.33;;
31128;SDS011;17777;48.770;8.944;2023-05-07T03:06:47;1.20;;;1.10;;
31128;SDS011;17777;48.770;8.944;2023-05-07T03:09:13;1.52;;;1.27;;
31128;SDS011;17777;48.770;8.944;2023-05-07T03:11:38;2.33;;;1.40;;
31128;SDS011;17777;48.770;8.944;2023-05-07T03:14:04;1.30;;;1.20;;
31128;SDS011;17777;48.770;8.944;2023-05-07T03:16:30;1.95;;;1.30;;
31128;SDS011;17777;48.770;8.944;2023-05-07T03:18:56;1.45;;;1.20;;
31128;SDS011;17777;48.770;8.944;2023-05-07T03:21:22;3.03;;;1.25;;
31128;SDS011;17777;48.770;8.944;2023-05-07T03:23:48;2.10;;;1.27;;
31128;SDS011;17777;48.770;8.944;2023-05-07T03:26:14;1.58;;;1.20;;
31128;SDS011;17777;48.770;8.944;2023-05-07T03:28:41;1.45;;;1.20;;
31128;SDS011;17777;48.770;8.944;2023-05-07T03:31:10;3.58;;;1.50;;
31128;SDS011;17777;48.770;8.944;2023-05-07T03:33:38;1.30;;;1.17;;
31128;SDS011;17777;48.770;8.944;2023-05-07T03:36:20;1.30;;;1.20;;
31128;SDS011;17777;48.770;8.944;2023-05-07T03:38:47;2.20;;;1.30;;
31128;SDS011;17777;48.770;8.944;2023-05-07T03:41:18;1.52;;;1.42;;
31128;SDS011;17777;48.770;8.944;2023-05-07T03:43:45;2.33;;;1.50;;
31128;SDS011;17777;48.770;8.944;2023-05-07T03:46:12;2.15;;;1.40;;
31128;SDS011;17777;48.770;8.944;2023-05-07T03:48:37;0.85;;;0.85;;
31128;SDS011;17777;48.770;8.944;2023-05-07T03:51:04;1.17;;;0.98;;
31128;SDS011;17777;48.770;8.944;2023-05-07T03:53:32;1.40;;;1.20;;
31128;SDS011;17777;48.770;8.944;2023-05-07T03:55:57;1.17;;;1.08;;
31128;SDS011;17777;48.770;8.944;2023-05-07T03:58:23;1.33;;;1.00;;
31128;SDS011;17777;48.770;8.944;2023-05-07T04:00:51;1.35;;;1.10;;
31128;SDS011;17777;48.770;8.944;2023-05-07T04:03:22;1.20;;;1.10;;
31128;SDS011;17777;48.770;8.944;2023-05-07T04:05:48;1.10;;;1.02;;
31128;SDS011;17777;48.770;8.944;2023-05-07T04:08:14;2.33;;;1.20;;
31128;SDS011;17777;48.770;8.944;2023-05-07T04:10:45;1.08;;;0.95;;
31128;SDS011;17777;48.770;8.944;2023-05-07T04:13:11;1.52;;;1.23;;
31128;SDS011;17777;48.770;8.944;2023-05-07T04:15:38;3.08;;;1.40;;
31128;SDS011;17777;48.770;8.944;2023-05-07T04:18:07;1.38;;;1.20;;
31128;SDS011;17777;48.770;8.944;2023-05-07T04:20:34;1.45;;;1.13;;
31128;SDS011;17777;48.770;8.944;2023-05-07T04:23:03;2.30;;;1.00;;
31128;SDS011;17777;48.770;8.944;2023-05-07T04:25:29;1.40;;;1.30;;
31128;SDS011;17777;48.770;8.944;2023-05-07T04:28:02;1.95;;;1.55;;
31128;SDS011;17777;48.770;8.944;2023-05-07T04:30:29;1.15;;;0.95;;
31128;SDS011;17777;48.770;8.944;2023-05-07T04:32:55;2.72;;;1.20;;
31128;SDS011;17777;48.770;8.944;2023-05-07T04:35:23;1.40;;;1.05;;
31128;SDS011;17777;48.770;8.944;2023-05-07T04:37:49;2.42;;;1.13;;
31128;SDS011;17777;48.770;8.944;2023-05-07T04:40:16;1.42;;;1.27;;
31128;SDS011;17777;48.770;8.944;2023-05-07T04:42:42;1.42;;;1.20;;
31128;SDS011;17777;48.770;8.944;2023-05-07T04:45:09;3.55;;;1.00;;
31128;SDS011;17777;48.770;8.944;2023-05-07T04:47:36;1.20;;;1.10;;
31128;SDS011;17777;48.770;8.944;2023-05-07T04:50:02;2.67;;;1.10;;
31128;SDS011;17777;48.770;8.944;2023-05-07T04:52:28;1.65;;;1.30;;
31128;SDS011;17777;48.770;8.944;2023-05-07T04:54:54;1.23;;;1.00;;
31128;SDS011;17777;48.770;8.944;2023-05-07T04:57:21;1.52;;;1.20;;
31128;SDS011;17777;48.770;8.944;2023-05-07T04:59:47;1.40;;;1.30;;
31128;SDS011;17777;48.770;8.944;2023-05-07T05:02:12;1.30;;;1.15;;
31128;SDS011;17777;48.770;8.944;2023-05-07T05:04:39;1.40;;;1.30;;
31128;SDS011;17777;48.770;8.944;2023-05-07T05:07:06;1.73;;;1.30;;
31128;SDS011;17777;48.770;8.944;2023-05-07T05:09:31;3.03;;;1.55;;
31128;SDS011;17777;48.770;8.944;2023-05-07T05:11:57;1.40;;;1.17;;
31128;SDS011;17777;48.770;8.944;2023-05-07T05:14:24;5.30;;;1.30;;
31128;SDS011;17777;48.770;8.944;2023-05-07T05:16:50;1.08;;;1.02;;
31128;SDS011;17777;48.770;8.944;2023-05-07T05:19:16;1.20;;;0.95;;
31128;SDS011;17777;48.770;8.944;2023-05-07T05:21:43;4.22;;;1.20;;
31128;SDS011;17777;48.770;8.944;2023-05-07T05:24:10;1.58;;;1.17;;
31128;SDS011;17777;48.770;8.944;2023-05-07T05:26:35;1.63;;;1.10;;
31128;SDS011;17777;48.770;8.944;2023-05-07T05:29:02;1.40;;;1.30;;
31128;SDS011;17777;48.770;8.944;2023-05-07T05:31:29;1.65;;;1.55;;
31128;SDS011;17777;48.770;8.944;2023-05-07T05:33:55;1.30;;;1.20;;
31128;SDS011;17777;48.770;8.944;2023-05-07T05:36:21;6.20;;;1.40;;
31128;SDS011;17777;48.770;8.944;2023-05-07T05:38:50;1.73;;;1.33;;
31128;SDS011;17777;48.770;8.944;2023-05-07T05:41:16;1.60;;;1.10;;
31128;SDS011;17777;48.770;8.944;2023-05-07T05:43:42;1.50;;;1.20;;
31128;SDS011;17777;48.770;8.944;2023-05-07T05:46:09;1.50;;;1.40;;
31128;SDS011;17777;48.770;8.944;2023-05-07T05:48:37;1.55;;;1.23;;
31128;SDS011;17777;48.770;8.944;2023-05-07T05:51:03;2.15;;;1.73;;
31128;SDS011;17777;48.770;8.944;2023-05-07T05:53:29;3.35;;;1.88;;
31128;SDS011;17777;48.770;8.944;2023-05-07T05:55:55;2.17;;;1.60;;
31128;SDS011;17777;48.770;8.944;2023-05-07T05:58:21;1.60;;;1.50;;
31128;SDS011;17777;48.770;8.944;2023-05-07T06:00:52;1.75;;;1.63;;
31128;SDS011;17777;48.770;8.944;2023-05-07T06:03:22;2.22;;;1.80;;
31128;SDS011;17777;48.770;8.944;2023-05-07T06:05:48;3.10;;;1.80;;
31128;SDS011;17777;48.770;8.944;2023-05-07T06:08:14;3.88;;;2.08;;
31128;SDS011;17777;48.770;8.944;2023-05-07T06:10:39;2.65;;;1.83;;
31128;SDS011;17777;48.770;8.944;2023-05-07T06:13:07;2.67;;;1.95;;
31128;SDS011;17777;48.770;8.944;2023-05-07T06:15:35;2.33;;;2.00;;
31128;SDS011;17777;48.770;8.944;2023-05-07T06:18:06;2.85;;;1.85;;
31128;SDS011;17777;48.770;8.944;2023-05-07T06:20:32;2.03;;;1.75;;
31128;SDS011;17777;48.770;8.944;2023-05-07T06:23:00;4.03;;;1.80;;
31128;SDS011;17777;48.770;8.944;2023-05-07T06:25:27;2.17;;;1.65;;
31128;SDS011;17777;48.770;8.944;2023-05-07T06:27:52;1.70;;;1.35;;
31128;SDS011;17777;48.770;8.944;2023-05-07T06:30:18;1.48;;;1.38;;
31128;SDS011;17777;48.770;8.944;2023-05-07T06:32:45;3.40;;;1.35;;
31128;SDS011;17777;48.770;8.944;2023-05-07T06:35:12;1.83;;;1.50;;
31128;SDS011;17777;48.770;8.944;2023-05-07T06:37:40;1.88;;;1.50;;
31128;SDS011;17777;48.770;8.944;2023-05-07T06:40:11;1.92;;;1.50;;
31128;SDS011;17777;48.770;8.944;2023-05-07T06:42:38;2.20;;;1.60;;
31128;SDS011;17777;48.770;8.944;2023-05-07T06:45:21;1.45;;;1.35;;
31128;SDS011;17777;48.770;8.944;2023-05-07T06:47:47;1.60;;;1.50;;
31128;SDS011;17777;48.770;8.944;2023-05-07T06:50:13;1.98;;;1.70;;
31128;SDS011;17777;48.770;8.944;2023-05-07T06:52:42;2.15;;;1.45;;
31128;SDS011;17777;48.770;8.944;2023-05-07T06:55:09;1.40;;;1.20;;
31128;SDS011;17777;48.770;8.944;2023-05-07T06:57:36;2.47;;;1.73;;
31128;SDS011;17777;48.770;8.944;2023-05-07T07:00:03;2.10;;;1.55;;
31128;SDS011;17777;48.770;8.944;2023-05-07T07:02:37;1.85;;;1.58;;
31128;SDS011;17777;48.770;8.944;2023-05-07T07:05:04;2.17;;;1.50;;
31128;SDS011;17777;48.770;8.944;2023-05-07T07:07:30;3.33;;;1.55;;
31128;SDS011;17777;48.770;8.944;2023-05-07T07:09:56;1.63;;;1.40;;
31128;SDS011;17777;48.770;8.944;2023-05-07T07:12:22;1.58;;;1.35;;
31128;SDS011;17777;48.770;8.944;2023-05-07T07:14:49;1.30;;;1.20;;
31128;SDS011;17777;48.770;8.944;2023-05-07T07:17:15;1.92;;;1.02;;
31128;SDS011;17777;48.770;8.944;2023-05-07T07:19:41;1.50;;;1.40;;
31128;SDS011;17777;48.770;8.944;2023-05-07T07:22:07;1.35;;;1.25;;
31128;SDS011;17777;48.770;8.944;2023-05-07T07:24:33;1.83;;;1.10;;
31128;SDS011;17777;48.770;8.944;2023-05-07T07:27:03;1.33;;;1.10;;
31128;SDS011;17777;48.770;8.944;2023-05-07T07:29:32;1.13;;;1.00;;
31128;SDS011;17777;48.770;8.944;2023-05-07T07:31:58;1.77;;;1.33;;
31128;SDS011;17777;48.770;8.944;2023-05-07T07:34:24;1.77;;;1.48;;
31128;SDS011;17777;48.770;8.944;2023-05-07T07:36:50;4.00;;;1.30;;
31128;SDS011;17777;48.770;8.944;2023-05-07T07:39:17;1.52;;;1.25;;
31128;SDS011;17777;48.770;8.944;2023-05-07T07:41:45;1.63;;;1.23;;
31128;SDS011;17777;48.770;8.944;2023-05-07T07:44:11;1.25;;;1.15;;
31128;SDS011;17777;48.770;8.944;2023-05-07T07:46:39;1.35;;;1.25;;
31128;SDS011;17777;48.770;8.944;2023-05-07T07:49:05;1.52;;;1.27;;
31128;SDS011;17777;48.770;8.944;2023-05-07T07:51:31;1.25;;;1.10;;
31128;SDS011;17777;48.770;8.944;2023-05-07T07:53:58;2.20;;;1.00;;
31128;SDS011;17777;48.770;8.944;2023-05-07T07:56:25;1.70;;;1.10;;
31128;SDS011;17777;48.770;8.944;2023-05-07T07:58:51;0.90;;;0.90;;
31128;SDS011;17777;48.770;8.944;2023-05-07T08:01:18;2.83;;;1.10;;
31128;SDS011;17777;48.770;8.944;2023-05-07T08:03:45;1.17;;;0.98;;
31128;SDS011;17777;48.770;8.944;2023-05-07T08:06:11;1.90;;;1.10;;
31128;SDS011;17777;48.770;8.944;2023-05-07T08:08:38;1.52;;;0.88;;
31128;SDS011;17777;48.770;8.944;2023-05-07T08:11:04;1.20;;;0.93;;
31128;SDS011;17777;48.770;8.944;2023-05-07T08:13:32;2.08;;;1.05;;
31128;SDS011;17777;48.770;8.944;2023-05-07T08:15:58;1.10;;;1.00;;
31128;SDS011;17777;48.770;8.944;2023-05-07T08:18:25;3.70;;;1.10;;
31128;SDS011;17777;48.770;8.944;2023-05-07T08:20:52;1.52;;;1.10;;
31128;SDS011;17777;48.770;8.944;2023-05-07T08:23:21;2.92;;;1.00;;
31128;SDS011;17777;48.770;8.944;2023-05-07T08:25:48;1.65;;;0.98;;
31128;SDS011;17777;48.770;8.944;2023-05-07T08:28:15;0.88;;;0.77;;
31128;SDS011;17777;48.770;8.944;2023-05-07T08:30:41;0.90;;;0.70;;
31128;SDS011;17777;48.770;8.944;2023-05-07T08:33:08;1.20;;;0.75;;
31128;SDS011;17777;48.770;8.944;2023-05-07T08:35:34;0.85;;;0.63;;
31128;SDS011;17777;48.770;8.944;2023-05-07T08:38:01;1.10;;;0.93;;
31128;SDS011;17777;48.770;8.944;2023-05-07T08:40:27;0.80;;;0.80;;
31128;SDS011;17777;48.770;8.944;2023-05-07T08:42:56;0.88;;;0.77;;
31128;SDS011;17777;48.770;8.944;2023-05-07T08:45:23;0.88;;;0.88;;
31128;SDS011;17777;48.770;8.944;2023-05-07T08:47:53;1.00;;;0.90;;
31128;SDS011;17777;48.770;8.944;2023-05-07T08:50:26;1.88;;;1.00;;
31128;SDS011;17777;48.770;8.944;2023-05-07T08:52:53;0.88;;;0.88;;
31128;SDS011;17777;48.770;8.944;2023-05-07T08:55:20;1.20;;;0.93;;
31128;SDS011;17777;48.770;8.944;2023-05-07T08:57:47;0.80;;;0.70;;
31128;SDS011;17777;48.770;8.944;2023-05-07T09:00:15;0.70;;;0.70;;
31128;SDS011;17777;48.770;8.944;2023-05-07T09:02:46;1.23;;;0.90;;
31128;SDS011;17777;48.770;8.944;2023-05-07T09:05:12;1.35;;;0.90;;
31128;SDS011;17777;48.770;8.944;2023-05-07T09:07:38;0.90;;;0.70;;
31128;SDS011;17777;48.770;8.944;2023-05-07T09:10:06;1.35;;;0.70;;
31128;SDS011;17777;48.770;8.944;2023-05-07T09:12:35;1.00;;;0.80;;
31128;SDS011;17777;48.770;8.944;2023-05-07T09:15:02;1.33;;;0.80;;
31128;SDS011;17777;48.770;8.944;2023-05-07T09:17:30;1.13;;;0.70;;
31128;SDS011;17777;48.770;8.944;2023-05-07T09:19:56;1.50;;;0.95;;
31128;SDS011;17777;48.770;8.944;2023-05-07T09:22:21;0.80;;;0.80;;
31128;SDS011;17777;48.770;8.944;2023-05-07T09:24:57;1.50;;;0.63;;
31128;SDS011;17777;48.770;8.944;2023-05-07T09:27:25;1.20;;;0.80;;
31128;SDS011;17777;48.770;8.944;2023-05-07T09:29:52;1.48;;;1.00;;
31128;SDS011;17777;48.770;8.944;2023-05-07T09:32:18;0.90;;;0.82;;
31128;SDS011;17777;48.770;8.944;2023-05-07T09:34:44;1.10;;;0.80;;
31128;SDS011;17777;48.770;8.944;2023-05-07T09:37:13;1.35;;;0.80;;
31128;SDS011;17777;48.770;8.944;2023-05-07T09:42:06;1.15;;;0.77;;
31128;SDS011;17777;48.770;8.944;2023-05-07T09:44:34;0.70;;;0.65;;
31128;SDS011;17777;48.770;8.944;2023-05-07T09:47:04;1.05;;;0.90;;
31128;SDS011;17777;48.770;8.944;2023-05-07T09:49:38;3.15;;;0.82;;
31128;SDS011;17777;48.770;8.944;2023-05-07T09:52:08;1.08;;;0.77;;
31128;SDS011;17777;48.770;8.944;2023-05-07T09:54:39;0.88;;;0.80;;
31128;SDS011;17777;48.770;8.944;2023-05-07T09:57:11;1.95;;;0.70;;
31128;SDS011;17777;48.770;8.944;2023-05-07T09:59:41;1.90;;;0.93;;
31128;SDS011;17777;48.770;8.944;2023-05-07T10:02:12;1.42;;;0.63;;
31128;SDS011;17777;48.770;8.944;2023-05-07T10:04:46;1.50;;;0.73;;
31128;SDS011;17777;48.770;8.944;2023-05-07T10:07:17;1.08;;;0.80;;
31128;SDS011;17777;48.770;8.944;2023-05-07T10:09:44;0.93;;;0.80;;
31128;SDS011;17777;48.770;8.944;2023-05-07T10:12:19;1.48;;;0.80;;
31128;SDS011;17777;48.770;8.944;2023-05-07T10:14:46;1.15;;;0.80;;
31128;SDS011;17777;48.770;8.944;2023-05-07T10:17:15;0.63;;;0.60;;
31128;SDS011;17777;48.770;8.944;2023-05-07T10:19:44;0.80;;;0.80;;
31128;SDS011;17777;48.770;8.944;2023-05-07T10:22:11;2.00;;;1.00;;
31128;SDS011;17777;48.770;8.944;2023-05-07T10:24:42;1.00;;;0.68;;
31128;SDS011;17777;48.770;8.944;2023-05-07T10:27:14;0.77;;;0.77;;
31128;SDS011;17777;48.770;8.944;2023-05-07T10:29:52;3.08;;;0.75;;
31128;SDS011;17777;48.770;8.944;2023-05-07T10:32:53;1.15;;;0.77;;
31128;SDS011;17777;48.770;8.944;2023-05-07T10:35:30;1.00;;;0.77;;
31128;SDS011;17777;48.770;8.944;2023-05-07T10:38:02;0.90;;;0.70;;
31128;SDS011;17777;48.770;8.944;2023-05-07T10:40:32;1.42;;;0.80;;
31128;SDS011;17777;48.770;8.944;2023-05-07T10:43:00;1.23;;;0.80;;
31128;SDS011;17777;48.770;8.944;2023-05-07T10:45:35;0.75;;;0.60;;
31128;SDS011;17777;48.770;8.944;2023-05-07T10:50:41;1.15;;;0.80;;
31128;SDS011;17777;48.770;8.944;2023-05-07T10:56:23;0.75;;;0.60;;
31128;SDS011;17777;48.770;8.944;2023-05-07T10:58:53;1.85;;;1.00;;
31128;SDS011;17777;48.770;8.944;2023-05-07T11:01:49;1.02;;;0.90;;
31128;SDS011;17777;48.770;8.944;2023-05-07T11:04:26;0.85;;;0.75;;
31128;SDS011;17777;48.770;8.944;2023-05-07T11:07:18;0.80;;;0.68;;
31128;SDS011;17777;48.770;8.944;2023-05-07T11:10:00;1.38;;;0.70;;
31128;SDS011;17777;48.770;8.944;2023-05-07T11:15:33;1.17;;;0.90;;
31128;SDS011;17777;48.770;8.944;2023-05-07T11:18:05;0.88;;;0.85;;
31128;SDS011;17777;48.770;8.944;2023-05-07T11:26:10;1.50;;;1.10;;
31128;SDS011;17777;48.770;8.944;2023-05-07T11:28:38;1.20;;;1.10;;
31128;SDS011;17777;48.770;8.944;2023-05-07T11:31:06;1.92;;;0.90;;
31128;SDS011;17777;48.770;8.944;2023-05-07T11:33:34;1.05;;;0.95;;
31128;SDS011;17777;48.770;8.944;2023-05-07T11:36:03;0.95;;;0.80;;
31128;SDS011;17777;48.770;8.944;2023-05-07T11:38:35;1.67;;;1.10;;
31128;SDS011;17777;48.770;8.944;2023-05-07T11:41:02;0.82;;;0.82;;
31128;SDS011;17777;48.770;8.944;2023-05-07T11:43:30;1.40;;;1.05;;
31128;SDS011;17777;48.770;8.944;2023-05-07T11:46:10;0.80;;;0.80;;
31128;SDS011;17777;48.770;8.944;2023-05-07T11:48:37;2.42;;;1.27;;
31128;SDS011;17777;48.770;8.944;2023-05-07T11:51:04;1.85;;;1.13;;
31128;SDS011;17777;48.770;8.944;2023-05-07T11:53:40;1.10;;;1.00;;
31128;SDS011;17777;48.770;8.944;2023-05-07T11:56:09;2.38;;;1.30;;
31128;SDS011;17777;48.770;8.944;2023-05-07T11:58:37;2.47;;;1.00;;
31128;SDS011;17777;48.770;8.944;2023-05-07T12:01:06;3.60;;;1.10;;
31128;SDS011;17777;48.770;8.944;2023-05-07T12:03:34;3.35;;;0.75;;
31128;SDS011;17777;48.770;8.944;2023-05-07T12:06:02;2.05;;;0.60;;
31128;SDS011;17777;48.770;8.944;2023-05-07T12:08:31;1.98;;;1.10;;
31128;SDS011;17777;48.770;8.944;2023-05-07T12:10:58;1.67;;;0.90;;
31128;SDS011;17777;48.770;8.944;2023-05-07T12:13:25;1.33;;;0.60;;
31128;SDS011;17777;48.770;8.944;2023-05-07T12:15:52;1.40;;;0.60;;
31128;SDS011;17777;48.770;8.944;2023-05-07T12:18:19;1.17;;;0.73;;
31128;SDS011;17777;48.770;8.944;2023-05-07T12:20:45;1.73;;;0.60;;
31128;SDS011;17777;48.770;8.944;2023-05-07T12:23:12;0.52;;;0.52;;
31128;SDS011;17777;48.770;8.944;2023-05-07T12:25:39;0.60;;;0.60;;
31128;SDS011;17777;48.770;8.944;2023-05-07T12:28:12;4.22;;;0.63;;
31128;SDS011;17777;48.770;8.944;2023-05-07T12:30:40;10.18;;;5.75;;
31128;SDS011;17777;48.770;8.944;2023-05-07T12:33:08;14.57;;;8.77;;
31128;SDS011;17777;48.770;8.944;2023-05-07T12:35:39;17.52;;;9.60;;
31128;SDS011;17777;48.770;8.944;2023-05-07T12:38:09;19.55;;;14.60;;
31128;SDS011;17777;48.770;8.944;2023-05-07T12:40:42;20.00;;;16.90;;
31128;SDS011;17777;48.770;8.944;2023-05-07T12:43:20;13.43;;;12.10;;
31128;SDS011;17777;48.770;8.944;2023-05-07T12:45:50;6.95;;;5.72;;
31128;SDS011;17777;48.770;8.944;2023-05-07T12:48:17;2.42;;;2.22;;
31128;SDS011;17777;48.770;8.944;2023-05-07T12:50:45;2.85;;;1.80;;
31128;SDS011;17777;48.770;8.944;2023-05-07T12:53:19;2.22;;;1.10;;
31128;SDS011;17777;48.770;8.944;2023-05-07T12:55:48;2.97;;;1.10;;
31128;SDS011;17777;48.770;8.944;2023-05-07T12:58:16;0.77;;;0.68;;
31128;SDS011;17777;48.770;8.944;2023-05-07T13:00:47;1.27;;;0.70;;
31128;SDS011;17777;48.770;8.944;2023-05-07T13:03:28;0.98;;;0.43;;
31128;SDS011;17777;48.770;8.944;2023-05-07T13:06:03;2.65;;;0.70;;
31128;SDS011;17777;48.770;8.944;2023-05-07T13:08:38;1.55;;;0.60;;
31128;SDS011;17777;48.770;8.944;2023-05-07T13:11:08;2.17;;;0.93;;
31128;SDS011;17777;48.770;8.944;2023-05-07T13:13:36;1.10;;;0.80;;
31128;SDS011;17777;48.770;8.944;2023-05-07T13:16:04;2.22;;;0.73;;
31128;SDS011;17777;48.770;8.944;2023-05-07T13:18:35;0.88;;;0.60;;
31128;SDS011;17777;48.770;8.944;2023-05-07T13:21:02;0.47;;;0.47;;
31128;SDS011;17777;48.770;8.944;2023-05-07T13:23:28;0.85;;;0.60;;
31128;SDS011;17777;48.770;8.944;2023-05-07T13:25:54;1.17;;;0.47;;
31128;SDS011;17777;48.770;8.944;2023-05-07T13:28:21;0.77;;;0.60;;
31128;SDS011;17777;48.770;8.944;2023-05-07T13:30:50;1.02;;;0.57;;
31128;SDS011;17777;48.770;8.944;2023-05-07T13:33:17;1.65;;;0.60;;
31128;SDS011;17777;48.770;8.944;2023-05-07T13:35:43;2.47;;;0.57;;
31128;SDS011;17777;48.770;8.944;2023-05-07T13:38:09;0.85;;;0.60;;
31128;SDS011;17777;48.770;8.944;2023-05-07T13:40:35;0.80;;;0.57;;
31128;SDS011;17777;48.770;8.944;2023-05-07T13:43:01;1.17;;;0.77;;
31128;SDS011;17777;48.770;8.944;2023-05-07T13:45:27;1.52;;;0.70;;
31128;SDS011;17777;48.770;8.944;2023-05-07T13:47:57;1.77;;;0.80;;
31128;SDS011;17777;48.770;8.944;2023-05-07T13:50:23;5.28;;;0.90;;
31128;SDS011;17777;48.770;8.944;2023-05-07T13:52:49;2.70;;;0.70;;
31128;SDS011;17777;48.770;8.944;2023-05-07T13:55:16;1.77;;;0.70;;
31128;SDS011;17777;48.770;8.944;2023-05-07T13:57:43;2.03;;;0.70;;
31128;SDS011;17777;48.770;8.944;2023-05-07T14:00:10;1.52;;;0.70;;
31128;SDS011;17777;48.770;8.944;2023-05-07T14:02:45;2.55;;;0.70;;
31128;SDS011;17777;48.770;8.944;2023-05-07T14:05:11;0.77;;;0.68;;
31128;SDS011;17777;48.770;8.944;2023-05-07T14:07:38;1.05;;;0.70;;
31128;SDS011;17777;48.770;8.944;2023-05-07T14:10:04;0.65;;;0.55;;
31128;SDS011;17777;48.770;8.944;2023-05-07T14:12:31;1.30;;;0.65;;
31128;SDS011;17777;48.770;8.944;2023-05-07T14:14:58;1.75;;;0.60;;
31128;SDS011;17777;48.770;8.944;2023-05-07T14:17:24;0.90;;;0.73;;
31128;SDS011;17777;48.770;8.944;2023-05-07T14:19:52;1.80;;;0.82;;
31128;SDS011;17777;48.770;8.944;2023-05-07T14:22:20;1.38;;;0.77;;
31128;SDS011;17777;48.770;8.944;2023-05-07T14:24:49;0.85;;;0.60;;
31128;SDS011;17777;48.770;8.944;2023-05-07T14:27:15;0.73;;;0.73;;
31128;SDS011;17777;48.770;8.944;2023-05-07T14:29:41;2.20;;;1.00;;
31128;SDS011;17777;48.770;8.944;2023-05-07T14:32:08;1.92;;;1.00;;
31128;SDS011;17777;48.770;8.944;2023-05-07T14:34:33;1.00;;;0.70;;
31128;SDS011;17777;48.770;8.944;2023-05-07T14:36:59;0.82;;;0.50;;
31128;SDS011;17777;48.770;8.944;2023-05-07T14:39:26;0.90;;;0.73;;
31128;SDS011;17777;48.770;8.944;2023-05-07T14:41:52;1.02;;;0.77;;
31128;SDS011;17777;48.770;8.944;2023-05-07T14:44:19;1.27;;;0.63;;
31128;SDS011;17777;48.770;8.944;2023-05-07T14:46:46;1.70;;;0.80;;
31128;SDS011;17777;48.770;8.944;2023-05-07T14:49:11;2.60;;;0.93;;
31128;SDS011;17777;48.770;8.944;2023-05-07T14:51:45;0.50;;;0.50;;
31128;SDS011;17777;48.770;8.944;2023-05-07T14:54:14;1.10;;;0.70;;
31128;SDS011;17777;48.770;8.944;2023-05-07T14:56:40;0.85;;;0.77;;
31128;SDS011;17777;48.770;8.944;2023-05-07T14:59:07;1.88;;;0.70;;
31128;SDS011;17777;48.770;8.944;2023-05-07T15:01:34;1.50;;;0.73;;
31128;SDS011;17777;48.770;8.944;2023-05-07T15:04:02;1.60;;;0.88;;
31128;SDS011;17777;48.770;8.944;2023-05-07T15:06:29;2.40;;;1.13;;
31128;SDS011;17777;48.770;8.944;2023-05-07T15:08:55;0.98;;;0.85;;